sensor_id;sensor_type;location;lat;lon;timestamp;pressure;altitude;pressure_sealevel;temperature;humidity
63447;BME280;49577;49.872;6.190;2023-02-28T00:01:27;100484.36;;;-2.61;64.66
63447;BME280;49577;49.872;6.190;2023-02-28T00:03:52;100488.25;;;-2.68;65.05
63447;BME280;49577;49.872;6.190;2023-02-28T00:06:18;100488.04;;;-2.76;65.28
63447;BME280;49577;49.872;6.190;2023-02-28T00:08:45;100489.55;;;-2.83;65.72
63447;BME280;49577;49.872;6.190;2023-02-28T00:11:12;100491.41;;;-2.83;65.89
63447;BME280;49577;49.872;6.190;2023-02-28T00:13:40;100490.20;;;-2.89;65.93
63447;BME280;49577;49.872;6.190;2023-02-28T00:16:11;100493.41;;;-2.93;66.23
63447;BME280;49577;49.872;6.190;2023-02-28T00:18:38;100496.62;;;-2.99;66.39
63447;BME280;49577;49.872;6.190;2023-02-28T00:21:04;100496.24;;;-3.05;66.52
63447;BME280;49577;49.872;6.190;2023-02-28T00:23:30;100496.55;;;-3.09;66.75
63447;BME280;49577;49.872;6.190;2023-02-28T00:25:55;100500.08;;;-3.16;67.01
63447;BME280;49577;49.872;6.190;2023-02-28T00:28:21;100499.70;;;-3.22;67.29
63447;BME280;49577;49.872;6.190;2023-02-28T00:30:47;100500.20;;;-3.24;67.43
63447;BME280;49577;49.872;6.190;2023-02-28T00:33:13;100500.72;;;-3.24;67.57
63447;BME280;49577;49.872;6.190;2023-02-28T00:35:38;100500.36;;;-3.25;67.68
63447;BME280;49577;49.872;6.190;2023-02-28T00:38:04;100497.51;;;-3.19;67.93
63447;BME280;49577;49.872;6.190;2023-02-28T00:40:29;100498.05;;;-3.16;67.73
63447;BME280;49577;49.872;6.190;2023-02-28T00:42:55;100502.48;;;-3.16;67.77
63447;BME280;49577;49.872;6.190;2023-02-28T00:45:20;100503.97;;;-3.21;67.78
63447;BME280;49577;49.872;6.190;2023-02-28T00:47:45;100501.73;;;-3.24;68.09
63447;BME280;49577;49.872;6.190;2023-02-28T00:50:16;100505.27;;;-3.31;68.17
63447;BME280;49577;49.872;6.190;2023-02-28T00:52:41;100504.00;;;-3.39;68.32
63447;BME280;49577;49.872;6.190;2023-02-28T00:55:07;100495.79;;;-3.42;68.66
63447;BME280;49577;49.872;6.190;2023-02-28T00:57:32;100498.36;;;-3.43;68.77
63447;BME280;49577;49.872;6.190;2023-02-28T00:59:58;100498.86;;;-3.43;69.01
63447;BME280;49577;49.872;6.190;2023-02-28T01:02:23;100499.23;;;-3.40;69.13
63447;BME280;49577;49.872;6.190;2023-02-28T01:04:48;100499.41;;;-3.37;68.98
63447;BME280;49577;49.872;6.190;2023-02-28T01:07:14;100505.22;;;-3.38;68.92
63447;BME280;49577;49.872;6.190;2023-02-28T01:09:40;100504.48;;;-3.44;68.99
63447;BME280;49577;49.872;6.190;2023-02-28T01:12:07;100505.42;;;-3.54;69.15
63447;BME280;49577;49.872;6.190;2023-02-28T01:14:33;100505.34;;;-3.62;69.44
63447;BME280;49577;49.872;6.190;2023-02-28T01:16:59;100501.71;;;-3.67;69.52
63447;BME280;49577;49.872;6.190;2023-02-28T01:19:24;100504.60;;;-3.70;69.74
63447;BME280;49577;49.872;6.190;2023-02-28T01:21:50;100500.30;;;-3.74;69.87
63447;BME280;49577;49.872;6.190;2023-02-28T01:24:15;100497.17;;;-3.77;69.97
63447;BME280;49577;49.872;6.190;2023-02-28T01:26:40;100491.67;;;-3.82;70.20
63447;BME280;49577;49.872;6.190;2023-02-28T01:29:06;100492.37;;;-3.81;70.31
63447;BME280;49577;49.872;6.190;2023-02-28T01:31:31;100496.59;;;-3.86;70.42
63447;BME280;49577;49.872;6.190;2023-02-28T01:33:56;100498.09;;;-3.90;70.54
63447;BME280;49577;49.872;6.190;2023-02-28T01:36:23;100494.50;;;-3.88;70.75
63447;BME280;49577;49.872;6.190;2023-02-28T01:38:49;100495.56;;;-3.87;70.74
63447;BME280;49577;49.872;6.190;2023-02-28T01:41:21;100494.15;;;-3.91;70.83
63447;BME280;49577;49.872;6.190;2023-02-28T01:46:13;100494.65;;;-3.74;71.00
63447;BME280;49577;49.872;6.190;2023-02-28T01:48:46;100493.80;;;-3.74;70.87
63447;BME280;49577;49.872;6.190;2023-02-28T01:51:19;100493.21;;;-3.82;70.87
63447;BME280;49577;49.872;6.190;2023-02-28T01:53:54;100495.70;;;-3.90;71.13
63447;BME280;49577;49.872;6.190;2023-02-28T01:56:24;100495.27;;;-3.97;71.37
63447;BME280;49577;49.872;6.190;2023-02-28T01:58:52;100495.94;;;-4.00;71.50
63447;BME280;49577;49.872;6.190;2023-02-28T02:01:19;100493.02;;;-4.01;71.59
63447;BME280;49577;49.872;6.190;2023-02-28T02:03:53;100490.77;;;-4.02;71.70
63447;BME280;49577;49.872;6.190;2023-02-28T02:06:46;100488.72;;;-4.03;71.58
63447;BME280;49577;49.872;6.190;2023-02-28T02:09:12;100488.55;;;-4.03;71.77
63447;BME280;49577;49.872;6.190;2023-02-28T02:11:40;100484.12;;;-4.03;71.77
63447;BME280;49577;49.872;6.190;2023-02-28T02:14:41;100486.84;;;-4.04;71.93
63447;BME280;49577;49.872;6.190;2023-02-28T02:17:20;100488.89;;;-4.03;71.85
63447;BME280;49577;49.872;6.190;2023-02-28T02:30:54;100475.31;;;-4.14;71.76
63447;BME280;49577;49.872;6.190;2023-02-28T02:36:39;100473.49;;;-4.24;72.13
63447;BME280;49577;49.872;6.190;2023-02-28T02:39:16;100473.79;;;-4.28;72.37
63447;BME280;49577;49.872;6.190;2023-02-28T02:44:24;100471.68;;;-4.33;72.38
63447;BME280;49577;49.872;6.190;2023-02-28T02:46:58;100469.27;;;-4.36;72.87
63447;BME280;49577;49.872;6.190;2023-02-28T02:49:31;100469.20;;;-4.42;72.82
63447;BME280;49577;49.872;6.190;2023-02-28T02:52:02;100470.02;;;-4.45;72.89
63447;BME280;49577;49.872;6.190;2023-02-28T02:54:31;100470.98;;;-4.49;73.09
63447;BME280;49577;49.872;6.190;2023-02-28T02:57:03;100474.40;;;-4.49;73.30
63447;BME280;49577;49.872;6.190;2023-02-28T02:59:30;100470.83;;;-4.48;73.26
63447;BME280;49577;49.872;6.190;2023-02-28T03:01:59;100472.17;;;-4.48;73.21
63447;BME280;49577;49.872;6.190;2023-02-28T03:04:28;100471.63;;;-4.52;73.18
63447;BME280;49577;49.872;6.190;2023-02-28T03:06:55;100473.44;;;-4.58;73.31
63447;BME280;49577;49.872;6.190;2023-02-28T03:09:22;100475.75;;;-4.63;73.43
63447;BME280;49577;49.872;6.190;2023-02-28T03:11:48;100474.19;;;-4.66;73.50
63447;BME280;49577;49.872;6.190;2023-02-28T03:25:32;100472.58;;;-4.72;74.09
63447;BME280;49577;49.872;6.190;2023-02-28T03:28:00;100473.44;;;-4.72;74.06
63447;BME280;49577;49.872;6.190;2023-02-28T03:30:57;100474.42;;;-4.73;74.22
63447;BME280;49577;49.872;6.190;2023-02-28T03:33:28;100471.50;;;-4.77;74.26
63447;BME280;49577;49.872;6.190;2023-02-28T03:36:02;100477.75;;;-4.79;74.33
63447;BME280;49577;49.872;6.190;2023-02-28T03:38:34;100477.02;;;-4.83;74.40
63447;BME280;49577;49.872;6.190;2023-02-28T03:41:08;100473.25;;;-4.85;74.41
63447;BME280;49577;49.872;6.190;2023-02-28T03:43:38;100471.52;;;-4.86;74.54
63447;BME280;49577;49.872;6.190;2023-02-28T03:46:10;100475.48;;;-4.85;74.61
63447;BME280;49577;49.872;6.190;2023-02-28T03:48:45;100473.38;;;-4.88;74.36
63447;BME280;49577;49.872;6.190;2023-02-28T03:51:17;100475.20;;;-4.93;74.45
63447;BME280;49577;49.872;6.190;2023-02-28T03:53:47;100475.95;;;-4.99;74.56
63447;BME280;49577;49.872;6.190;2023-02-28T03:56:22;100476.04;;;-5.05;74.59
63447;BME280;49577;49.872;6.190;2023-02-28T03:59:00;100474.83;;;-5.06;74.89
63447;BME280;49577;49.872;6.190;2023-02-28T04:01:35;100479.95;;;-5.06;74.93
63447;BME280;49577;49.872;6.190;2023-02-28T04:04:01;100479.90;;;-4.97;75.91
63447;BME280;49577;49.872;6.190;2023-02-28T04:06:27;100477.27;;;-4.77;76.37
63447;BME280;49577;49.872;6.190;2023-02-28T04:08:56;100478.52;;;-4.73;75.16
63447;BME280;49577;49.872;6.190;2023-02-28T04:13:52;100478.95;;;-4.80;74.81
63447;BME280;49577;49.872;6.190;2023-02-28T04:16:18;100475.64;;;-4.85;74.86
63447;BME280;49577;49.872;6.190;2023-02-28T04:18:44;100480.70;;;-4.89;74.88
63447;BME280;49577;49.872;6.190;2023-02-28T04:21:10;100480.64;;;-4.93;74.98
63447;BME280;49577;49.872;6.190;2023-02-28T04:23:36;100476.68;;;-4.96;75.14
63447;BME280;49577;49.872;6.190;2023-02-28T04:26:01;100476.98;;;-4.99;75.35
63447;BME280;49577;49.872;6.190;2023-02-28T04:28:27;100474.74;;;-5.01;75.39
63447;BME280;49577;49.872;6.190;2023-02-28T04:31:00;100472.83;;;-5.03;75.51
63447;BME280;49577;49.872;6.190;2023-02-28T04:33:26;100474.67;;;-5.05;75.57
63447;BME280;49577;49.872;6.190;2023-02-28T04:36:02;100479.94;;;-5.05;75.71
63447;BME280;49577;49.872;6.190;2023-02-28T04:38:29;100476.31;;;-5.10;75.64
63447;BME280;49577;49.872;6.190;2023-02-28T04:40:57;100473.40;;;-5.11;75.85
63447;BME280;49577;49.872;6.190;2023-02-28T04:43:23;100473.05;;;-5.11;75.98
63447;BME280;49577;49.872;6.190;2023-02-28T04:45:48;100472.00;;;-5.13;75.90
63447;BME280;49577;49.872;6.190;2023-02-28T04:48:13;100471.30;;;-5.15;75.99
63447;BME280;49577;49.872;6.190;2023-02-28T04:50:39;100471.95;;;-5.17;75.97
63447;BME280;49577;49.872;6.190;2023-02-28T04:53:04;100473.29;;;-5.18;76.15
63447;BME280;49577;49.872;6.190;2023-02-28T04:55:29;100476.71;;;-5.17;76.22
63447;BME280;49577;49.872;6.190;2023-02-28T04:57:55;100474.86;;;-5.17;76.31
63447;BME280;49577;49.872;6.190;2023-02-28T05:00:20;100478.44;;;-5.16;76.33
63447;BME280;49577;49.872;6.190;2023-02-28T05:02:45;100480.14;;;-5.17;76.35
63447;BME280;49577;49.872;6.190;2023-02-28T05:05:11;100478.61;;;-5.17;76.37
63447;BME280;49577;49.872;6.190;2023-02-28T05:07:41;100480.83;;;-5.16;76.61
63447;BME280;49577;49.872;6.190;2023-02-28T05:10:07;100483.39;;;-5.14;76.52
63447;BME280;49577;49.872;6.190;2023-02-28T05:12:32;100482.02;;;-5.15;76.49
63447;BME280;49577;49.872;6.190;2023-02-28T05:14:58;100484.02;;;-5.19;76.41
63447;BME280;49577;49.872;6.190;2023-02-28T05:17:23;100479.02;;;-5.22;76.47
63447;BME280;49577;49.872;6.190;2023-02-28T05:19:48;100480.35;;;-5.24;76.74
63447;BME280;49577;49.872;6.190;2023-02-28T05:22:15;100482.23;;;-5.24;76.92
63447;BME280;49577;49.872;6.190;2023-02-28T05:24:43;100486.80;;;-5.26;76.89
63447;BME280;49577;49.872;6.190;2023-02-28T05:27:09;100488.50;;;-5.26;77.31
63447;BME280;49577;49.872;6.190;2023-02-28T05:29:34;100485.90;;;-5.18;77.67
63447;BME280;49577;49.872;6.190;2023-02-28T05:32:11;100488.67;;;-5.15;77.33
63447;BME280;49577;49.872;6.190;2023-02-28T05:34:38;100492.01;;;-5.08;77.56
63447;BME280;49577;49.872;6.190;2023-02-28T05:37:04;100494.14;;;-5.02;77.48
63447;BME280;49577;49.872;6.190;2023-02-28T05:39:29;100496.01;;;-5.02;76.96
63447;BME280;49577;49.872;6.190;2023-02-28T05:41:54;100494.59;;;-5.06;77.00
63447;BME280;49577;49.872;6.190;2023-02-28T05:44:20;100493.73;;;-5.06;77.07
63447;BME280;49577;49.872;6.190;2023-02-28T05:46:45;100493.08;;;-5.05;77.32
63447;BME280;49577;49.872;6.190;2023-02-28T05:49:10;100495.45;;;-5.05;77.05
63447;BME280;49577;49.872;6.190;2023-02-28T05:51:36;100494.58;;;-5.08;77.17
63447;BME280;49577;49.872;6.190;2023-02-28T05:54:05;100491.86;;;-5.07;77.23
63447;BME280;49577;49.872;6.190;2023-02-28T05:56:30;100491.38;;;-5.05;77.39
63447;BME280;49577;49.872;6.190;2023-02-28T05:58:56;100493.81;;;-5.02;77.22
63447;BME280;49577;49.872;6.190;2023-02-28T06:01:37;100489.70;;;-5.04;77.10
63447;BME280;49577;49.872;6.190;2023-02-28T06:04:03;100494.80;;;-5.04;77.04
63447;BME280;49577;49.872;6.190;2023-02-28T06:06:29;100494.94;;;-5.06;77.03
63447;BME280;49577;49.872;6.190;2023-02-28T06:08:55;100491.27;;;-5.12;76.90
63447;BME280;49577;49.872;6.190;2023-02-28T06:11:21;100491.23;;;-5.15;77.09
63447;BME280;49577;49.872;6.190;2023-02-28T06:13:47;100493.42;;;-5.16;77.22
63447;BME280;49577;49.872;6.190;2023-02-28T06:16:12;100495.30;;;-5.17;77.16
63447;BME280;49577;49.872;6.190;2023-02-28T06:18:38;100500.89;;;-5.18;77.13
63447;BME280;49577;49.872;6.190;2023-02-28T06:21:04;100506.35;;;-5.18;77.13
63447;BME280;49577;49.872;6.190;2023-02-28T06:23:30;100503.59;;;-5.20;77.09
63447;BME280;49577;49.872;6.190;2023-02-28T06:25:55;100506.14;;;-5.21;77.15
63447;BME280;49577;49.872;6.190;2023-02-28T06:28:24;100507.13;;;-5.23;77.10
63447;BME280;49577;49.872;6.190;2023-02-28T06:30:51;100507.65;;;-5.22;77.22
63447;BME280;49577;49.872;6.190;2023-02-28T06:33:16;100511.88;;;-5.23;77.16
63447;BME280;49577;49.872;6.190;2023-02-28T06:35:46;100516.85;;;-5.21;77.41
63447;BME280;49577;49.872;6.190;2023-02-28T06:38:12;100516.08;;;-5.17;77.39
63447;BME280;49577;49.872;6.190;2023-02-28T06:40:37;100519.11;;;-4.95;77.59
63447;BME280;49577;49.872;6.190;2023-02-28T06:43:02;100519.74;;;-4.63;77.50
63447;BME280;49577;49.872;6.190;2023-02-28T06:45:28;100520.90;;;-4.39;77.03
63447;BME280;49577;49.872;6.190;2023-02-28T06:47:53;100524.95;;;-3.99;76.87
63447;BME280;49577;49.872;6.190;2023-02-28T06:50:19;100527.23;;;-3.41;76.42
63447;BME280;49577;49.872;6.190;2023-02-28T06:52:45;100530.73;;;-2.82;75.57
63447;BME280;49577;49.872;6.190;2023-02-28T06:55:11;100531.20;;;-2.29;74.33
63447;BME280;49577;49.872;6.190;2023-02-28T06:57:37;100532.74;;;-1.69;73.41
63447;BME280;49577;49.872;6.190;2023-02-28T07:00:08;100531.19;;;-0.68;71.97
63447;BME280;49577;49.872;6.190;2023-02-28T07:02:35;100532.81;;;0.37;69.64
63447;BME280;49577;49.872;6.190;2023-02-28T07:05:01;100538.40;;;1.31;66.98
63447;BME280;49577;49.872;6.190;2023-02-28T07:07:26;100534.27;;;2.04;64.23
63447;BME280;49577;49.872;6.190;2023-02-28T07:09:52;100534.36;;;2.70;62.31
63447;BME280;49577;49.872;6.190;2023-02-28T07:12:17;100532.80;;;3.41;61.33
63447;BME280;49577;49.872;6.190;2023-02-28T07:14:42;100531.65;;;4.23;59.08
63447;BME280;49577;49.872;6.190;2023-02-28T07:17:09;100534.23;;;4.76;56.14
63447;BME280;49577;49.872;6.190;2023-02-28T07:19:37;100531.48;;;5.10;54.50
63447;BME280;49577;49.872;6.190;2023-02-28T07:22:03;100529.48;;;5.60;53.10
63447;BME280;49577;49.872;6.190;2023-02-28T07:24:28;100533.30;;;6.22;52.06
63447;BME280;49577;49.872;6.190;2023-02-28T07:26:54;100532.27;;;6.61;48.81
63447;BME280;49577;49.872;6.190;2023-02-28T07:29:20;100528.66;;;6.65;47.30
63447;BME280;49577;49.872;6.190;2023-02-28T07:31:45;100530.33;;;6.77;46.65
63447;BME280;49577;49.872;6.190;2023-02-28T07:34:12;100527.48;;;6.90;46.44
63447;BME280;49577;49.872;6.190;2023-02-28T07:36:37;100529.44;;;7.30;46.08
63447;BME280;49577;49.872;6.190;2023-02-28T07:39:02;100529.79;;;7.93;45.37
63447;BME280;49577;49.872;6.190;2023-02-28T07:41:29;100532.89;;;8.54;43.87
63447;BME280;49577;49.872;6.190;2023-02-28T07:43:54;100534.80;;;8.80;41.58
63447;BME280;49577;49.872;6.190;2023-02-28T07:46:25;100533.27;;;9.16;41.17
63447;BME280;49577;49.872;6.190;2023-02-28T07:48:51;100532.54;;;9.38;39.67
63447;BME280;49577;49.872;6.190;2023-02-28T07:51:18;100531.22;;;9.61;39.25
63447;BME280;49577;49.872;6.190;2023-02-28T07:53:43;100527.44;;;9.98;39.26
63447;BME280;49577;49.872;6.190;2023-02-28T07:56:08;100529.14;;;10.34;35.65
63447;BME280;49577;49.872;6.190;2023-02-28T07:58:36;100527.64;;;9.98;35.78
63447;BME280;49577;49.872;6.190;2023-02-28T08:01:05;100528.50;;;10.21;35.99
63447;BME280;49577;49.872;6.190;2023-02-28T08:03:31;100522.61;;;10.39;35.73
63447;BME280;49577;49.872;6.190;2023-02-28T08:05:56;100520.27;;;11.01;35.58
63447;BME280;49577;49.872;6.190;2023-02-28T08:08:22;100525.00;;;11.53;34.34
63447;BME280;49577;49.872;6.190;2023-02-28T08:10:47;100521.86;;;11.79;32.91
63447;BME280;49577;49.872;6.190;2023-02-28T08:13:12;100516.76;;;11.76;32.81
63447;BME280;49577;49.872;6.190;2023-02-28T08:15:40;100515.27;;;11.95;31.79
63447;BME280;49577;49.872;6.190;2023-02-28T08:18:06;100515.81;;;12.01;32.03
63447;BME280;49577;49.872;6.190;2023-02-28T08:20:32;100514.40;;;12.42;32.03
63447;BME280;49577;49.872;6.190;2023-02-28T08:22:57;100513.91;;;12.79;31.01
63447;BME280;49577;49.872;6.190;2023-02-28T08:25:23;100517.34;;;13.05;31.27
63447;BME280;49577;49.872;6.190;2023-02-28T08:27:51;100520.98;;;13.32;29.62
63447;BME280;49577;49.872;6.190;2023-02-28T08:30:17;100520.38;;;13.19;29.66
63447;BME280;49577;49.872;6.190;2023-02-28T08:32:42;100514.83;;;12.93;28.97
63447;BME280;49577;49.872;6.190;2023-02-28T08:35:08;100517.04;;;12.82;30.23
63447;BME280;49577;49.872;6.190;2023-02-28T08:37:34;100514.41;;;12.98;29.65
63447;BME280;49577;49.872;6.190;2023-02-28T08:39:59;100513.39;;;13.21;30.08
63447;BME280;49577;49.872;6.190;2023-02-28T08:42:25;100510.30;;;13.58;29.59
63447;BME280;49577;49.872;6.190;2023-02-28T08:44:50;100512.24;;;13.72;29.17
63447;BME280;49577;49.872;6.190;2023-02-28T08:47:16;100504.98;;;13.76;27.80
63447;BME280;49577;49.872;6.190;2023-02-28T08:49:41;100512.77;;;13.40;28.19
63447;BME280;49577;49.872;6.190;2023-02-28T08:52:06;100516.71;;;13.15;28.25
63447;BME280;49577;49.872;6.190;2023-02-28T08:54:32;100516.17;;;13.09;28.63
63447;BME280;49577;49.872;6.190;2023-02-28T08:56:59;100513.67;;;13.43;28.46
63447;BME280;49577;49.872;6.190;2023-02-28T08:59:24;100510.14;;;13.92;27.67
63447;BME280;49577;49.872;6.190;2023-02-28T09:01:49;100509.59;;;13.92;27.30
63447;BME280;49577;49.872;6.190;2023-02-28T09:04:15;100508.90;;;13.92;27.41
63447;BME280;49577;49.872;6.190;2023-02-28T09:06:40;100508.16;;;13.81;26.97
63447;BME280;49577;49.872;6.190;2023-02-28T09:09:05;100509.61;;;13.98;27.66
63447;BME280;49577;49.872;6.190;2023-02-28T09:11:33;100505.55;;;14.81;27.53
63447;BME280;49577;49.872;6.190;2023-02-28T09:14:00;100515.19;;;15.33;25.58
63447;BME280;49577;49.872;6.190;2023-02-28T09:16:28;100510.73;;;14.82;24.93
63447;BME280;49577;49.872;6.190;2023-02-28T09:18:53;100516.84;;;14.61;25.17
63447;BME280;49577;49.872;6.190;2023-02-28T09:21:19;100512.39;;;14.67;25.70
63447;BME280;49577;49.872;6.190;2023-02-28T09:23:46;100507.48;;;14.45;24.69
63447;BME280;49577;49.872;6.190;2023-02-28T09:26:17;100507.48;;;14.15;25.57
63447;BME280;49577;49.872;6.190;2023-02-28T09:28:43;100514.61;;;14.08;25.37
63447;BME280;49577;49.872;6.190;2023-02-28T09:31:14;100514.85;;;13.64;24.82
63447;BME280;49577;49.872;6.190;2023-02-28T09:33:40;100511.43;;;13.13;26.30
63447;BME280;49577;49.872;6.190;2023-02-28T09:36:06;100513.66;;;13.25;25.90
63447;BME280;49577;49.872;6.190;2023-02-28T09:38:31;100515.79;;;13.63;25.72
63447;BME280;49577;49.872;6.190;2023-02-28T09:41:00;100513.86;;;14.00;25.46
63447;BME280;49577;49.872;6.190;2023-02-28T09:43:31;100515.08;;;13.22;25.34
63447;BME280;49577;49.872;6.190;2023-02-28T09:48:44;100509.88;;;12.04;25.53
63447;BME280;49577;49.872;6.190;2023-02-28T09:51:29;100508.23;;;12.11;25.75
63447;BME280;49577;49.872;6.190;2023-02-28T09:53:55;100507.35;;;11.52;25.87
63447;BME280;49577;49.872;6.190;2023-02-28T09:56:25;100506.86;;;11.10;26.28
63447;BME280;49577;49.872;6.190;2023-02-28T09:58:57;100515.08;;;10.93;26.09
63447;BME280;49577;49.872;6.190;2023-02-28T10:07:23;100508.30;;;11.40;23.66
63447;BME280;49577;49.872;6.190;2023-02-28T10:09:55;100503.14;;;11.29;24.59
63447;BME280;49577;49.872;6.190;2023-02-28T10:12:24;100511.77;;;10.86;25.13
63447;BME280;49577;49.872;6.190;2023-02-28T10:14:52;100509.25;;;10.06;25.72
63447;BME280;49577;49.872;6.190;2023-02-28T10:17:22;100521.73;;;9.05;26.82
63447;BME280;49577;49.872;6.190;2023-02-28T10:20:11;100509.78;;;9.64;26.82
63447;BME280;49577;49.872;6.190;2023-02-28T10:22:52;100510.73;;;10.27;26.38
63447;BME280;49577;49.872;6.190;2023-02-28T10:25:24;100503.70;;;11.04;25.88
63447;BME280;49577;49.872;6.190;2023-02-28T10:27:59;100501.11;;;11.87;25.09
63447;BME280;49577;49.872;6.190;2023-02-28T10:30:26;100492.00;;;12.63;24.48
63447;BME280;49577;49.872;6.190;2023-02-28T10:32:52;100494.42;;;13.18;24.38
63447;BME280;49577;49.872;6.190;2023-02-28T10:35:24;100492.79;;;13.63;23.44
63447;BME280;49577;49.872;6.190;2023-02-28T10:37:53;100496.39;;;13.95;22.76
63447;BME280;49577;49.872;6.190;2023-02-28T10:43:05;100501.83;;;12.26;23.94
63447;BME280;49577;49.872;6.190;2023-02-28T10:45:54;100500.79;;;11.27;24.51
63447;BME280;49577;49.872;6.190;2023-02-28T10:53:25;100498.85;;;9.43;27.15
63447;BME280;49577;49.872;6.190;2023-02-28T11:01:19;100498.15;;;9.11;28.32
63447;BME280;49577;49.872;6.190;2023-02-28T11:03:45;100492.30;;;8.76;28.97
63447;BME280;49577;49.872;6.190;2023-02-28T11:06:31;100485.61;;;9.35;29.22
63447;BME280;49577;49.872;6.190;2023-02-28T11:08:59;100494.54;;;9.73;28.51
63447;BME280;49577;49.872;6.190;2023-02-28T11:11:28;100489.11;;;10.04;28.65
63447;BME280;49577;49.872;6.190;2023-02-28T11:13:56;100489.91;;;9.52;28.83
63447;BME280;49577;49.872;6.190;2023-02-28T11:16:32;100491.89;;;8.94;29.30
63447;BME280;49577;49.872;6.190;2023-02-28T11:18:58;100484.39;;;8.21;29.96
63447;BME280;49577;49.872;6.190;2023-02-28T11:21:27;100486.07;;;7.81;30.90
63447;BME280;49577;49.872;6.190;2023-02-28T11:24:27;100492.80;;;7.68;31.41
63447;BME280;49577;49.872;6.190;2023-02-28T11:26:54;100488.29;;;7.29;31.81
63447;BME280;49577;49.872;6.190;2023-02-28T11:29:27;100485.66;;;7.00;32.35
63447;BME280;49577;49.872;6.190;2023-02-28T11:34:35;100481.64;;;6.59;33.40
63447;BME280;49577;49.872;6.190;2023-02-28T11:37:02;100480.12;;;7.04;33.59
63447;BME280;49577;49.872;6.190;2023-02-28T11:39:34;100475.48;;;7.13;33.33
63447;BME280;49577;49.872;6.190;2023-02-28T11:48:04;100469.12;;;6.21;34.32
63447;BME280;49577;49.872;6.190;2023-02-28T11:59:02;100463.14;;;7.47;34.75
63447;BME280;49577;49.872;6.190;2023-02-28T12:01:43;100470.39;;;8.66;33.41
63447;BME280;49577;49.872;6.190;2023-02-28T12:08:15;100465.25;;;7.97;33.22
63447;BME280;49577;49.872;6.190;2023-02-28T12:10:23;100464.36;;;7.61;33.26
63447;BME280;49577;49.872;6.190;2023-02-28T12:18:23;100463.42;;;6.47;35.57
63447;BME280;49577;49.872;6.190;2023-02-28T12:21:18;100455.67;;;6.07;36.34
63447;BME280;49577;49.872;6.190;2023-02-28T12:23:55;100461.45;;;5.99;36.65
63447;BME280;49577;49.872;6.190;2023-02-28T12:26:43;100454.64;;;6.61;35.85
63447;BME280;49577;49.872;6.190;2023-02-28T12:29:19;100449.99;;;6.86;34.83
63447;BME280;49577;49.872;6.190;2023-02-28T12:34:24;100444.96;;;6.91;35.10
63447;BME280;49577;49.872;6.190;2023-02-28T12:36:53;100450.58;;;6.63;35.39
63447;BME280;49577;49.872;6.190;2023-02-28T12:39:28;100447.26;;;6.75;35.23
63447;BME280;49577;49.872;6.190;2023-02-28T12:45:01;100438.33;;;7.02;34.96
63447;BME280;49577;49.872;6.190;2023-02-28T12:47:27;100436.13;;;6.75;34.95
63447;BME280;49577;49.872;6.190;2023-02-28T12:50:00;100437.11;;;6.51;35.97
63447;BME280;49577;49.872;6.190;2023-02-28T12:52:47;100437.55;;;6.42;36.49
63447;BME280;49577;49.872;6.190;2023-02-28T12:55:30;100437.42;;;6.08;35.95
63447;BME280;49577;49.872;6.190;2023-02-28T12:58:10;100438.87;;;5.65;36.97
63447;BME280;49577;49.872;6.190;2023-02-28T13:00:55;100437.10;;;5.36;37.56
63447;BME280;49577;49.872;6.190;2023-02-28T13:03:41;100437.88;;;5.14;37.90
63447;BME280;49577;49.872;6.190;2023-02-28T13:06:20;100433.04;;;5.07;38.26
63447;BME280;49577;49.872;6.190;2023-02-28T13:11:28;100437.77;;;4.98;39.13
63447;BME280;49577;49.872;6.190;2023-02-28T13:13:59;100438.02;;;5.03;39.23
63447;BME280;49577;49.872;6.190;2023-02-28T13:16:25;100441.58;;;5.11;38.32
63447;BME280;49577;49.872;6.190;2023-02-28T13:18:51;100435.40;;;5.29;37.84
63447;BME280;49577;49.872;6.190;2023-02-28T13:21:28;100431.63;;;5.27;37.63
63447;BME280;49577;49.872;6.190;2023-02-28T13:24:00;100425.33;;;5.17;38.03
63447;BME280;49577;49.872;6.190;2023-02-28T13:29:00;100412.75;;;5.51;38.36
63447;BME280;49577;49.872;6.190;2023-02-28T13:31:26;100408.54;;;5.71;37.95
63447;BME280;49577;49.872;6.190;2023-02-28T13:36:29;100407.31;;;5.71;37.67
63447;BME280;49577;49.872;6.190;2023-02-28T13:38:59;100412.91;;;5.57;37.29
63447;BME280;49577;49.872;6.190;2023-02-28T13:46:35;100410.11;;;5.16;37.46
63447;BME280;49577;49.872;6.190;2023-02-28T13:52:18;100412.02;;;5.41;38.13
63447;BME280;49577;49.872;6.190;2023-02-28T13:55:13;100409.73;;;5.66;36.81
63447;BME280;49577;49.872;6.190;2023-02-28T13:58:10;100408.20;;;5.59;36.81
63447;BME280;49577;49.872;6.190;2023-02-28T14:06:16;100405.82;;;4.83;37.31
63447;BME280;49577;49.872;6.190;2023-02-28T14:08:55;100418.86;;;4.73;37.76
63447;BME280;49577;49.872;6.190;2023-02-28T14:11:38;100406.45;;;4.65;37.46
63447;BME280;49577;49.872;6.190;2023-02-28T14:14:06;100405.80;;;4.70;37.73
63447;BME280;49577;49.872;6.190;2023-02-28T14:16:39;100406.36;;;4.75;37.44
63447;BME280;49577;49.872;6.190;2023-02-28T14:19:20;100412.20;;;4.70;37.28
63447;BME280;49577;49.872;6.190;2023-02-28T14:35:50;100400.54;;;4.87;37.84
63447;BME280;49577;49.872;6.190;2023-02-28T14:38:36;100392.23;;;4.86;37.46
63447;BME280;49577;49.872;6.190;2023-02-28T14:41:14;100399.82;;;4.81;37.40
63447;BME280;49577;49.872;6.190;2023-02-28T14:43:58;100395.83;;;4.75;37.94
63447;BME280;49577;49.872;6.190;2023-02-28T14:46:34;100391.10;;;4.76;38.31
63447;BME280;49577;49.872;6.190;2023-02-28T14:49:03;100393.97;;;4.72;37.73
63447;BME280;49577;49.872;6.190;2023-02-28T14:51:29;100400.91;;;4.58;37.68
63447;BME280;49577;49.872;6.190;2023-02-28T14:54:01;100392.88;;;4.48;38.23
63447;BME280;49577;49.872;6.190;2023-02-28T14:56:34;100388.59;;;4.46;38.68
63447;BME280;49577;49.872;6.190;2023-02-28T14:59:00;100399.37;;;4.51;39.01
63447;BME280;49577;49.872;6.190;2023-02-28T15:01:26;100404.27;;;4.55;38.90
63447;BME280;49577;49.872;6.190;2023-02-28T15:04:03;100397.64;;;4.51;38.33
63447;BME280;49577;49.872;6.190;2023-02-28T15:06:31;100397.86;;;4.42;38.61